createdAt,value
2024-01-24T00:00:07.145Z,23.26
2024-01-24T00:01:07.225Z,23.26
2024-01-24T00:02:07.135Z,23.27
2024-01-24T00:03:07.156Z,23.28
2024-01-24T00:04:07.232Z,23.27
2024-01-24T00:05:07.157Z,23.32
2024-01-24T00:06:07.098Z,23.32
2024-01-24T00:07:07.098Z,23.32
2024-01-24T00:08:07.077Z,23.30
2024-01-24T00:09:07.115Z,23.31
2024-01-24T00:10:07.158Z,23.31
2024-01-24T00:11:07.071Z,23.33
2024-01-24T00:12:07.111Z,23.32
2024-01-24T00:13:07.101Z,23.32
2024-01-24T00:14:07.100Z,23.32
2024-01-24T00:15:07.165Z,23.32
2024-01-24T00:16:07.194Z,23.31
2024-01-24T00:17:07.234Z,23.31
2024-01-24T00:18:07.384Z,23.32
2024-01-24T00:19:07.369Z,23.30
2024-01-24T00:20:07.295Z,23.31
2024-01-24T00:21:07.297Z,23.33
2024-01-24T00:22:07.365Z,23.33
2024-01-24T00:23:07.260Z,23.33
2024-01-24T00:24:07.265Z,23.32
2024-01-24T00:25:07.242Z,23.31
2024-01-24T00:26:07.226Z,23.29
2024-01-24T00:27:07.234Z,23.30
2024-01-24T00:28:07.218Z,23.33
2024-01-24T00:29:07.226Z,23.33
2024-01-24T00:30:07.214Z,23.33
2024-01-24T00:31:07.216Z,23.32
2024-01-24T00:32:07.206Z,23.33
2024-01-24T00:33:07.210Z,23.33
2024-01-24T00:34:07.441Z,23.32
2024-01-24T00:35:07.181Z,23.34
2024-01-24T00:36:07.192Z,23.33
2024-01-24T00:37:07.167Z,23.33
2024-01-24T00:38:07.183Z,23.34
2024-01-24T00:39:07.166Z,23.32
2024-01-24T00:40:07.180Z,23.31
2024-01-24T00:41:07.160Z,23.34
2024-01-24T00:42:07.161Z,23.34
2024-01-24T00:43:07.139Z,23.34
2024-01-24T00:44:07.127Z,23.32
2024-01-24T00:45:07.172Z,23.34
2024-01-24T00:46:07.118Z,23.35
2024-01-24T00:47:07.103Z,23.33
2024-01-24T00:48:07.203Z,23.31
2024-01-24T00:49:07.170Z,23.34
2024-01-24T00:50:07.112Z,23.35
2024-01-24T00:51:07.098Z,23.36
2024-01-24T00:52:07.079Z,23.39
2024-01-24T00:53:07.075Z,23.37
2024-01-24T00:54:07.103Z,23.36
2024-01-24T00:55:07.077Z,23.37
2024-01-24T00:56:07.083Z,23.37
2024-01-24T00:57:07.092Z,23.36
2024-01-24T00:58:07.083Z,23.35
2024-01-24T00:59:07.061Z,23.36
2024-01-24T01:00:07.041Z,23.35
2024-01-24T01:01:07.154Z,23.36
2024-01-24T01:02:07.050Z,23.37
2024-01-24T01:03:07.075Z,23.37
2024-01-24T01:04:07.117Z,23.37
2024-01-24T01:05:07.050Z,23.37
2024-01-24T01:06:07.060Z,23.35
2024-01-24T01:07:07.048Z,23.34
2024-01-24T01:08:07.051Z,23.35
2024-01-24T01:09:07.083Z,23.35
2024-01-24T01:10:07.153Z,23.37
2024-01-24T01:11:07.074Z,23.36
2024-01-24T01:12:07.086Z,23.34
2024-01-24T01:13:07.086Z,23.36
2024-01-24T01:14:07.119Z,23.37
2024-01-24T01:15:07.123Z,23.35
2024-01-24T01:16:07.104Z,23.35
2024-01-24T01:17:07.105Z,23.37
2024-01-24T01:18:07.197Z,23.37
2024-01-24T01:19:07.212Z,23.37
2024-01-24T01:20:07.094Z,23.35
2024-01-24T01:21:07.091Z,23.35
2024-01-24T01:22:07.139Z,23.36
2024-01-24T01:23:07.077Z,23.36
2024-01-24T01:24:07.125Z,23.38
2024-01-24T01:25:07.101Z,23.37
2024-01-24T01:26:07.093Z,23.39
2024-01-24T01:27:07.104Z,23.39
2024-01-24T01:28:07.089Z,23.41
2024-01-24T01:29:07.112Z,23.44
2024-01-24T01:30:07.087Z,23.44
2024-01-24T01:31:07.095Z,23.43
2024-01-24T01:32:07.133Z,23.42
2024-01-24T01:33:07.226Z,23.41
2024-01-24T01:34:07.143Z,23.40
2024-01-24T01:35:07.078Z,23.39
2024-01-24T01:36:17.270Z,23.39
2024-01-24T01:37:08.143Z,23.39
2024-01-24T01:38:07.058Z,23.40
2024-01-24T01:39:07.085Z,23.40
2024-01-24T01:40:07.038Z,23.39
2024-01-24T01:41:07.009Z,23.38
2024-01-24T01:42:07.027Z,23.37
2024-01-24T01:43:07.845Z,23.38
2024-01-24T01:44:06.993Z,23.39
2024-01-24T01:45:07.006Z,23.41
2024-01-24T01:46:06.992Z,23.38
2024-01-24T01:47:06.982Z,23.40
2024-01-24T01:48:07.043Z,23.39
2024-01-24T01:49:07.096Z,23.40
2024-01-24T01:50:07.838Z,23.40
2024-01-24T01:51:06.946Z,23.42
2024-01-24T01:52:06.935Z,23.41
2024-01-24T01:53:06.915Z,23.41
2024-01-24T01:54:06.902Z,23.42
2024-01-24T01:55:06.917Z,23.41
2024-01-24T01:56:06.896Z,23.41
2024-01-24T01:57:06.902Z,23.44
2024-01-24T01:58:06.873Z,23.42
2024-01-24T01:59:06.863Z,23.42
2024-01-24T02:00:06.903Z,23.43
2024-01-24T02:01:06.974Z,23.42
2024-01-24T02:02:06.855Z,23.42
2024-01-24T02:03:06.931Z,23.43
2024-01-24T02:04:06.892Z,23.43
2024-01-24T02:05:06.797Z,23.43
2024-01-24T02:06:06.818Z,23.43
2024-01-24T02:07:06.889Z,23.43
2024-01-24T02:08:06.773Z,23.43
2024-01-24T02:09:06.829Z,23.43
2024-01-24T02:10:06.761Z,23.43
2024-01-24T02:11:06.747Z,23.43
2024-01-24T02:12:06.778Z,23.43
2024-01-24T02:13:06.789Z,23.43
2024-01-24T02:14:06.799Z,23.43
2024-01-24T02:15:06.844Z,23.43
2024-01-24T02:16:06.887Z,23.43
2024-01-24T02:17:06.911Z,23.43
2024-01-24T02:18:07.033Z,23.43
2024-01-24T02:19:07.102Z,23.43
2024-01-24T02:20:07.130Z,23.43
2024-01-24T02:21:07.020Z,23.43
2024-01-24T02:22:07.074Z,23.43
2024-01-24T02:23:07.083Z,23.43
2024-01-24T02:24:07.110Z,23.43
2024-01-24T02:25:07.133Z,23.43
2024-01-24T02:26:07.166Z,23.43
2024-01-24T02:27:07.229Z,23.43
2024-01-24T02:28:07.329Z,23.43
2024-01-24T02:29:07.273Z,23.43
2024-01-24T02:30:07.281Z,23.43
2024-01-24T02:31:07.302Z,23.43
2024-01-24T02:32:07.393Z,23.43
2024-01-24T02:33:07.437Z,23.43
2024-01-24T02:34:07.457Z,23.43
2024-01-24T02:35:07.410Z,23.43
2024-01-24T02:36:07.435Z,23.43
2024-01-24T02:37:07.490Z,23.43
2024-01-24T02:38:07.493Z,23.43
2024-01-24T02:39:07.543Z,23.43
2024-01-24T02:40:07.604Z,23.43
2024-01-24T02:41:07.603Z,23.43
2024-01-24T02:42:07.641Z,23.43
2024-01-24T02:43:07.668Z,23.43
2024-01-24T02:44:07.691Z,23.43
2024-01-24T02:45:07.791Z,23.43
2024-01-24T02:46:07.677Z,23.43
2024-01-24T02:47:07.669Z,23.43
2024-01-24T02:48:07.692Z,23.43
2024-01-24T02:49:07.756Z,23.43
2024-01-24T02:50:07.619Z,23.43
2024-01-24T02:51:07.627Z,23.43
2024-01-24T02:52:07.602Z,23.43
2024-01-24T02:53:07.589Z,23.43
2024-01-24T02:54:07.555Z,23.43
2024-01-24T02:55:07.559Z,23.43
2024-01-24T02:56:07.535Z,23.43
2024-01-24T02:57:07.544Z,23.43
2024-01-24T02:58:07.530Z,23.43
2024-01-24T02:59:07.532Z,23.43
2024-01-24T03:00:07.520Z,23.43
2024-01-24T03:01:07.685Z,23.43
2024-01-24T03:02:07.502Z,23.43
2024-01-24T03:03:07.536Z,23.43
2024-01-24T03:04:07.562Z,23.43
2024-01-24T03:05:07.476Z,23.43
2024-01-24T03:06:07.479Z,23.43
2024-01-24T03:07:07.526Z,23.43
2024-01-24T03:08:07.476Z,23.43
2024-01-24T03:09:07.430Z,23.43
2024-01-24T03:10:07.397Z,23.43
2024-01-24T03:11:07.392Z,23.43
2024-01-24T03:12:07.397Z,23.43
2024-01-24T03:13:07.463Z,23.43
2024-01-24T03:14:07.359Z,23.43
2024-01-24T03:15:07.395Z,23.43
2024-01-24T03:16:07.330Z,23.43
2024-01-24T03:17:07.324Z,23.43
2024-01-24T03:18:07.389Z,23.43
2024-01-24T03:19:07.430Z,23.43
2024-01-24T03:20:07.297Z,23.43
2024-01-24T03:21:07.290Z,23.43
2024-01-24T03:22:07.279Z,23.43
2024-01-24T03:23:07.257Z,23.43
2024-01-24T03:24:07.866Z,23.43
2024-01-24T03:25:07.243Z,23.43
2024-01-24T03:26:07.242Z,23.43
2024-01-24T03:27:07.204Z,23.43
2024-01-24T03:28:07.197Z,23.43
2024-01-24T03:29:07.189Z,23.43
2024-01-24T03:30:07.199Z,23.43
2024-01-24T03:31:07.173Z,23.43
2024-01-24T03:32:07.156Z,23.43
2024-01-24T03:33:07.242Z,23.43
2024-01-24T03:34:07.339Z,23.43
2024-01-24T03:35:07.286Z,23.43
2024-01-24T03:36:07.111Z,23.43
2024-01-24T03:37:07.103Z,23.43
2024-01-24T03:38:07.085Z,23.43
2024-01-24T03:39:07.090Z,23.43
2024-01-24T03:40:07.050Z,23.43
2024-01-24T03:41:07.054Z,23.43
2024-01-24T03:42:07.064Z,23.43
2024-01-24T03:43:07.025Z,23.43
2024-01-24T03:44:07.154Z,23.43
2024-01-24T03:45:06.993Z,23.43
2024-01-24T03:46:06.999Z,23.43
2024-01-24T03:47:06.974Z,23.43
2024-01-24T03:48:07.047Z,23.43
2024-01-24T03:49:07.072Z,23.43
2024-01-24T03:50:06.937Z,23.43
2024-01-24T03:51:06.943Z,23.43
2024-01-24T03:52:06.964Z,23.43
2024-01-24T03:53:06.992Z,23.43
2024-01-24T03:54:07.054Z,23.43
2024-01-24T03:55:07.043Z,23.43
2024-01-24T03:56:07.073Z,23.43
2024-01-24T03:57:07.083Z,23.43
2024-01-24T03:58:07.102Z,23.43
2024-01-24T03:59:07.155Z,23.43
2024-01-24T04:00:07.234Z,23.43
2024-01-24T04:01:07.294Z,23.43
2024-01-24T04:02:09.241Z,23.43
2024-01-24T04:03:07.256Z,23.43
2024-01-24T04:04:07.364Z,23.43
2024-01-24T04:05:07.303Z,23.43
2024-01-24T04:06:07.363Z,23.43
2024-01-24T04:07:07.421Z,23.43
2024-01-24T04:08:07.374Z,23.43
2024-01-24T04:09:07.397Z,23.43
2024-01-24T04:10:07.438Z,23.43
2024-01-24T04:11:07.459Z,23.43
2024-01-24T04:12:07.478Z,23.43
2024-01-24T04:13:07.504Z,23.43
2024-01-24T04:14:07.725Z,23.43
2024-01-24T04:15:07.574Z,23.43
2024-01-24T04:16:07.653Z,23.43
2024-01-24T04:17:07.616Z,23.43
2024-01-24T04:18:07.746Z,23.43
2024-01-24T04:19:07.787Z,23.43
2024-01-24T04:20:07.720Z,23.43
2024-01-24T04:21:07.739Z,23.43
2024-01-24T04:22:07.776Z,23.43
2024-01-24T04:23:07.803Z,23.43
2024-01-24T04:24:07.851Z,23.43
2024-01-24T04:25:07.859Z,23.43
2024-01-24T04:26:07.838Z,23.43
2024-01-24T04:27:07.869Z,23.43
2024-01-24T04:28:07.826Z,23.43
2024-01-24T04:29:10.826Z,23.43
2024-01-24T04:30:08.790Z,23.43
2024-01-24T04:31:16.028Z,23.11
2024-01-24T04:32:16.032Z,23.16
2024-01-24T04:33:16.168Z,23.21
2024-01-24T04:34:16.087Z,23.25
2024-01-24T04:35:16.029Z,23.26
2024-01-24T04:36:16.062Z,23.26
2024-01-24T04:37:16.063Z,23.31
2024-01-24T04:38:16.053Z,23.28
2024-01-24T04:39:16.078Z,23.30
2024-01-24T04:40:16.060Z,23.32
2024-01-24T04:41:16.050Z,23.33
2024-01-24T04:42:17.164Z,23.35
2024-01-24T04:43:16.047Z,23.35
2024-01-24T04:44:16.329Z,23.35
2024-01-24T04:45:16.073Z,23.36
2024-01-24T04:46:16.043Z,23.35
2024-01-24T04:47:16.052Z,23.36
2024-01-24T04:48:16.122Z,23.36
2024-01-24T04:49:26.377Z,23.40
2024-01-24T04:50:17.169Z,23.38
2024-01-24T04:51:16.091Z,23.38
2024-01-24T04:52:16.100Z,23.38
2024-01-24T04:53:16.105Z,23.37
2024-01-24T04:54:16.135Z,23.36
2024-01-24T04:55:16.097Z,23.34
2024-01-24T04:56:16.115Z,23.33
2024-01-24T04:57:16.119Z,23.34
2024-01-24T04:58:16.087Z,23.34
2024-01-24T04:59:16.095Z,23.33
2024-01-24T05:00:16.154Z,23.32
2024-01-24T05:01:16.224Z,23.33
2024-01-24T05:02:16.221Z,23.35
2024-01-24T05:03:16.299Z,23.33
2024-01-24T05:04:16.387Z,23.32
2024-01-24T05:05:16.397Z,23.34
2024-01-24T05:06:16.527Z,23.35
2024-01-24T05:07:16.685Z,23.33
2024-01-24T05:08:16.530Z,23.35
2024-01-24T05:09:16.615Z,23.31
2024-01-24T05:10:16.635Z,23.32
2024-01-24T05:11:16.694Z,23.32
2024-01-24T05:12:16.812Z,23.34
2024-01-24T05:13:16.823Z,23.34
2024-01-24T05:14:16.890Z,23.33
2024-01-24T05:15:16.983Z,23.33
2024-01-24T05:16:17.033Z,23.34
2024-01-24T05:17:17.146Z,23.35
2024-01-24T05:18:17.308Z,23.34
2024-01-24T05:19:17.452Z,23.32
2024-01-24T05:20:17.337Z,23.32
2024-01-24T05:21:17.396Z,23.33
2024-01-24T05:22:17.467Z,23.31
2024-01-24T05:23:17.551Z,23.31
2024-01-24T05:24:17.619Z,23.32
2024-01-24T05:25:17.680Z,23.32
2024-01-24T05:26:17.723Z,23.32
2024-01-24T05:27:17.872Z,23.32
2024-01-24T05:28:17.868Z,23.30
2024-01-24T05:29:17.925Z,23.31
2024-01-24T05:30:29.512Z,23.31
2024-01-24T05:31:19.019Z,23.30
2024-01-24T05:32:18.041Z,23.29
2024-01-24T05:33:18.060Z,23.32
2024-01-24T05:34:18.078Z,23.29
2024-01-24T05:35:18.035Z,23.26
2024-01-24T05:36:18.007Z,23.29
2024-01-24T05:37:17.992Z,23.29
2024-01-24T05:38:18.035Z,23.33
2024-01-24T05:39:18.043Z,23.31
2024-01-24T05:40:18.035Z,23.31
2024-01-24T05:41:18.041Z,23.31
2024-01-24T05:42:18.110Z,23.30
2024-01-24T05:43:18.106Z,23.30
2024-01-24T05:44:18.161Z,23.30
2024-01-24T05:45:18.222Z,23.30
2024-01-24T05:46:18.265Z,23.29
2024-01-24T05:47:18.364Z,23.31
2024-01-24T05:48:18.574Z,23.30
2024-01-24T05:49:18.560Z,23.31
2024-01-24T05:50:18.536Z,23.32
2024-01-24T05:51:18.580Z,23.31
2024-01-24T05:52:18.593Z,23.29
2024-01-24T05:53:18.653Z,23.26
2024-01-24T05:54:18.741Z,23.28
2024-01-24T05:55:19.674Z,23.28
2024-01-24T05:56:18.793Z,23.31
2024-01-24T05:57:18.903Z,23.32
2024-01-24T05:58:18.905Z,23.31
2024-01-24T05:59:18.934Z,23.31
2024-01-24T06:00:19.136Z,23.30
2024-01-24T06:01:19.311Z,23.27
2024-01-24T06:02:19.142Z,23.29
2024-01-24T06:03:19.692Z,23.29
2024-01-24T06:04:19.419Z,23.29
2024-01-24T06:05:19.494Z,23.29
2024-01-24T06:06:19.545Z,23.30
2024-01-24T06:07:19.585Z,23.30
2024-01-24T06:08:19.585Z,23.31
2024-01-24T06:09:19.654Z,23.31
2024-01-24T06:10:19.729Z,23.33
2024-01-24T06:11:19.792Z,23.32
2024-01-24T06:12:19.909Z,23.34
2024-01-24T06:13:19.922Z,23.34
2024-01-24T06:14:20.004Z,23.33
2024-01-24T06:15:20.146Z,23.36
2024-01-24T06:16:20.157Z,23.33
2024-01-24T06:17:20.252Z,23.35
2024-01-24T06:18:20.426Z,23.36
2024-01-24T06:19:20.433Z,23.43
2024-01-24T06:20:20.420Z,23.42
2024-01-24T06:21:20.522Z,23.33
2024-01-24T06:22:20.631Z,23.38
2024-01-24T06:23:20.621Z,23.45
2024-01-24T06:24:21.945Z,23.49
2024-01-24T06:25:20.711Z,23.59
2024-01-24T06:26:21.675Z,23.66
2024-01-24T06:27:21.215Z,23.77
2024-01-24T06:28:20.782Z,24.09
2024-01-24T06:30:14.749Z,24.82
2024-01-24T06:30:23.895Z,24.61
2024-01-24T06:31:20.913Z,24.46
2024-01-24T06:32:21.216Z,24.73
2024-01-24T06:33:20.836Z,25.06
2024-01-24T06:34:20.987Z,25.12
2024-01-24T06:35:20.942Z,25.30
2024-01-24T06:36:20.776Z,25.25
2024-01-24T06:37:20.900Z,25.72
2024-01-24T06:38:20.874Z,25.71
2024-01-24T06:39:20.810Z,26.51
2024-01-24T06:40:21.009Z,26.22
2024-01-24T06:41:20.784Z,26.03
2024-01-24T06:42:20.853Z,25.70
2024-01-24T06:43:21.168Z,25.71
2024-01-24T06:44:20.821Z,25.80
2024-01-24T06:45:20.990Z,25.82
2024-01-24T06:46:20.793Z,25.80
2024-01-24T06:47:20.813Z,25.65
2024-01-24T06:48:20.860Z,25.61
2024-01-24T06:49:20.868Z,25.53
2024-01-24T06:50:20.871Z,25.68
2024-01-24T06:51:20.897Z,25.67
2024-01-24T06:52:20.885Z,25.75
2024-01-24T06:53:20.810Z,25.65
2024-01-24T06:54:20.865Z,25.64
2024-01-24T06:55:20.934Z,25.55
2024-01-24T06:56:20.808Z,25.51
2024-01-24T06:57:20.945Z,25.50
2024-01-24T06:58:20.904Z,25.47
2024-01-24T06:59:20.940Z,25.50
2024-01-24T07:00:21.007Z,25.44
2024-01-24T07:01:21.088Z,25.42
2024-01-24T07:02:21.142Z,25.35
2024-01-24T07:03:23.474Z,25.35
2024-01-24T07:04:21.551Z,25.35
2024-01-24T07:05:21.457Z,25.37
2024-01-24T07:06:21.578Z,25.41
2024-01-24T07:07:21.622Z,25.35
2024-01-24T07:08:21.589Z,25.29
2024-01-24T07:09:21.712Z,25.32
2024-01-24T07:10:21.694Z,25.28
2024-01-24T07:11:21.748Z,25.28
2024-01-24T07:12:21.959Z,25.28
2024-01-24T07:13:21.837Z,25.23
2024-01-24T07:14:21.872Z,25.23
2024-01-24T07:15:21.968Z,25.24
2024-01-24T07:16:22.009Z,25.28
2024-01-24T07:17:22.146Z,25.26
2024-01-24T07:18:22.189Z,25.15
2024-01-24T07:19:22.245Z,25.18
2024-01-24T07:20:22.153Z,25.21
2024-01-24T07:21:22.260Z,25.21
2024-01-24T07:22:22.237Z,25.31
2024-01-24T07:23:22.290Z,25.30
2024-01-24T07:24:22.373Z,25.31
2024-01-24T07:25:22.449Z,25.26
2024-01-24T07:26:22.432Z,25.32
2024-01-24T07:27:22.530Z,25.33
2024-01-24T07:28:22.499Z,25.27
2024-01-24T07:29:22.537Z,25.20
2024-01-24T07:30:22.607Z,25.26
2024-01-24T07:31:23.278Z,25.30
2024-01-24T07:32:22.724Z,25.46
2024-01-24T07:33:25.340Z,25.42
2024-01-24T07:34:22.890Z,25.31
2024-01-24T07:35:22.705Z,25.36
2024-01-24T07:36:22.700Z,25.21
2024-01-24T07:37:22.727Z,25.36
2024-01-24T07:38:22.692Z,25.32
2024-01-24T07:39:22.727Z,25.21
2024-01-24T07:40:22.684Z,25.17
2024-01-24T07:41:22.699Z,25.13
2024-01-24T07:42:22.741Z,25.11
2024-01-24T07:43:22.710Z,25.12
2024-01-24T07:44:22.699Z,25.15
2024-01-24T07:45:22.704Z,25.09
2024-01-24T07:46:22.693Z,25.14
2024-01-24T07:47:22.691Z,25.19
2024-01-24T07:48:22.765Z,25.08
2024-01-24T07:49:22.829Z,24.98
2024-01-24T07:50:22.679Z,24.94
2024-01-24T07:51:22.738Z,24.94
2024-01-24T07:52:32.170Z,24.86
2024-01-24T07:53:23.687Z,24.88
2024-01-24T07:54:22.746Z,24.95
2024-01-24T07:55:28.572Z,24.93
2024-01-24T07:56:26.223Z,24.99
2024-01-24T07:57:22.733Z,24.94
2024-01-24T07:58:22.827Z,24.91
2024-01-24T07:59:22.640Z,24.85
2024-01-24T08:00:22.693Z,24.86
2024-01-24T08:01:23.114Z,24.75
2024-01-24T08:02:22.648Z,24.77
2024-01-24T08:03:22.677Z,24.91
2024-01-24T08:04:22.780Z,25.04
2024-01-24T08:05:22.615Z,24.94
2024-01-24T08:06:23.077Z,24.89
2024-01-24T08:07:22.623Z,24.86
2024-01-24T08:08:22.590Z,24.84
2024-01-24T08:09:22.635Z,24.84
2024-01-24T08:10:22.588Z,24.79
2024-01-24T08:11:22.618Z,24.79
2024-01-24T08:12:22.594Z,24.80
2024-01-24T08:13:22.558Z,24.73
2024-01-24T08:14:22.569Z,24.81
2024-01-24T08:15:22.612Z,24.87
2024-01-24T08:16:22.544Z,24.90
2024-01-24T08:17:22.854Z,24.79
2024-01-24T08:18:22.712Z,24.86
2024-01-24T08:19:22.575Z,24.82
2024-01-24T08:20:22.537Z,24.86
2024-01-24T08:21:22.545Z,24.73
2024-01-24T08:22:22.509Z,24.78
2024-01-24T08:23:26.672Z,24.86
2024-01-24T08:24:23.515Z,24.78
2024-01-24T08:25:22.477Z,24.89
2024-01-24T08:26:22.477Z,26.26
2024-01-24T08:27:22.815Z,26.16
2024-01-24T08:28:22.518Z,26.50
2024-01-24T08:29:29.713Z,26.28
2024-01-24T08:30:23.490Z,25.99
2024-01-24T08:31:22.466Z,26.07
2024-01-24T08:32:22.440Z,25.84
2024-01-24T08:33:22.526Z,25.69
2024-01-24T08:34:22.461Z,25.78
2024-01-24T08:35:22.427Z,25.79
2024-01-24T08:36:22.480Z,25.74
2024-01-24T08:37:22.391Z,25.88
2024-01-24T08:38:22.382Z,26.17
2024-01-24T08:39:22.381Z,26.27
2024-01-24T08:40:22.438Z,26.38
2024-01-24T08:41:22.384Z,26.34
2024-01-24T08:42:22.454Z,26.51
2024-01-24T08:43:22.381Z,26.53
2024-01-24T08:44:22.382Z,26.58
2024-01-24T08:45:22.371Z,26.63
2024-01-24T08:46:22.336Z,26.86
2024-01-24T08:47:22.339Z,26.76
2024-01-24T08:48:22.473Z,27.01
2024-01-24T08:49:22.437Z,26.82
2024-01-24T08:50:22.316Z,26.86
2024-01-24T08:51:22.360Z,26.89
2024-01-24T08:52:22.349Z,27.08
2024-01-24T08:53:22.394Z,27.23
2024-01-24T08:54:22.434Z,27.05
2024-01-24T08:55:22.379Z,27.07
2024-01-24T08:56:22.401Z,27.21
2024-01-24T08:57:22.784Z,27.34
2024-01-24T08:58:22.445Z,26.95
2024-01-24T08:59:22.464Z,27.32
2024-01-24T09:00:22.540Z,27.22
2024-01-24T09:01:22.606Z,27.15
2024-01-24T09:02:22.752Z,27.03
2024-01-24T09:03:22.552Z,27.23
2024-01-24T09:04:22.579Z,27.24
2024-01-24T09:05:22.604Z,27.30
2024-01-24T09:06:22.467Z,27.24
2024-01-24T09:07:22.448Z,27.34
2024-01-24T09:08:22.449Z,27.48
2024-01-24T09:09:22.652Z,27.54
2024-01-24T09:10:22.508Z,27.35
2024-01-24T09:11:23.414Z,27.37
2024-01-24T09:12:22.444Z,27.32
2024-01-24T09:13:22.394Z,27.22
2024-01-24T09:14:22.370Z,27.49
2024-01-24T09:15:22.441Z,27.45
2024-01-24T09:16:22.375Z,27.59
2024-01-24T09:17:22.360Z,27.62
2024-01-24T09:18:22.464Z,27.74
2024-01-24T09:19:22.463Z,27.53
2024-01-24T09:20:22.914Z,27.89
2024-01-24T09:21:22.376Z,27.92
2024-01-24T09:22:22.317Z,27.89
2024-01-24T09:23:22.304Z,27.35
2024-01-24T09:24:22.287Z,26.62
2024-01-24T09:25:22.323Z,26.51
2024-01-24T09:26:22.312Z,26.43
2024-01-24T09:27:22.337Z,26.62
2024-01-24T09:28:22.330Z,26.72
2024-01-24T09:29:22.332Z,26.92
2024-01-24T09:30:22.386Z,27.05
2024-01-24T09:31:22.420Z,27.12
2024-01-24T09:32:22.378Z,27.18
2024-01-24T09:33:22.539Z,27.34
2024-01-24T09:34:22.599Z,27.42
2024-01-24T09:35:23.020Z,27.48
2024-01-24T09:36:23.298Z,27.65
2024-01-24T09:37:22.766Z,27.82
2024-01-24T09:38:22.508Z,28.40
2024-01-24T09:39:22.578Z,28.75
2024-01-24T09:40:22.609Z,28.85
2024-01-24T09:41:22.568Z,29.04
2024-01-24T09:42:22.668Z,29.16
2024-01-24T09:43:22.611Z,29.43
2024-01-24T09:44:22.670Z,29.27
2024-01-24T09:45:22.721Z,29.31
2024-01-24T09:46:22.760Z,29.20
2024-01-24T09:47:23.288Z,29.19
2024-01-24T09:48:22.985Z,28.97
2024-01-24T09:49:22.937Z,28.93
2024-01-24T09:50:22.917Z,28.68
2024-01-24T09:51:22.986Z,28.59
2024-01-24T09:52:22.991Z,28.47
2024-01-24T09:53:22.981Z,28.15
2024-01-24T09:54:23.041Z,28.17
2024-01-24T09:55:23.078Z,28.27
2024-01-24T09:56:23.216Z,28.17
2024-01-24T09:57:23.285Z,28.44
2024-01-24T09:58:23.387Z,28.04
2024-01-24T09:59:23.371Z,28.26
2024-01-24T10:00:23.448Z,28.35
2024-01-24T10:01:23.588Z,28.27
2024-01-24T10:02:23.546Z,28.52
2024-01-24T10:03:23.586Z,28.24
2024-01-24T10:04:23.736Z,28.29
2024-01-24T10:05:23.672Z,28.37
2024-01-24T10:06:23.778Z,28.58
2024-01-24T10:07:23.846Z,28.63
2024-01-24T10:08:23.791Z,28.72
2024-01-24T10:09:23.860Z,28.70
2024-01-24T10:10:23.843Z,28.69
2024-01-24T10:11:23.889Z,28.66
2024-01-24T10:12:23.958Z,28.74
2024-01-24T10:13:23.909Z,28.82
2024-01-24T10:14:23.910Z,28.84
2024-01-24T10:15:23.967Z,28.80
2024-01-24T10:16:23.937Z,28.84
2024-01-24T10:17:23.952Z,28.79
2024-01-24T10:18:24.014Z,28.74
2024-01-24T10:19:24.038Z,28.87
2024-01-24T10:20:23.935Z,28.89
2024-01-24T10:21:24.093Z,28.93
2024-01-24T10:22:24.325Z,28.92
2024-01-24T10:23:23.946Z,28.93
2024-01-24T10:24:24.033Z,28.98
2024-01-24T10:25:23.987Z,29.17
2024-01-24T10:26:24.075Z,29.35
2024-01-24T10:27:24.410Z,29.71
2024-01-24T10:28:24.015Z,30.10
2024-01-24T10:29:24.038Z,30.03
2024-01-24T10:30:24.024Z,29.78
2024-01-24T10:31:24.003Z,29.89
2024-01-24T10:32:24.286Z,29.80
2024-01-24T10:33:24.291Z,29.49
2024-01-24T10:34:24.105Z,29.45
2024-01-24T10:35:24.126Z,29.24
2024-01-24T10:36:27.762Z,29.38
2024-01-24T10:37:25.380Z,29.50
2024-01-24T10:38:23.965Z,29.49
2024-01-24T10:39:24.009Z,29.50
2024-01-24T10:40:23.960Z,29.69
2024-01-24T10:41:23.952Z,29.78
2024-01-24T10:42:24.015Z,30.03
2024-01-24T10:43:23.978Z,30.08
2024-01-24T10:44:23.942Z,30.06
2024-01-24T10:45:24.210Z,30.28
2024-01-24T10:46:23.978Z,30.43
2024-01-24T10:47:24.018Z,30.53
2024-01-24T10:48:24.400Z,31.36
2024-01-24T10:49:24.089Z,31.01
2024-01-24T10:50:23.965Z,31.15
2024-01-24T10:51:24.008Z,31.05
2024-01-24T10:52:23.921Z,30.95
2024-01-24T10:53:23.977Z,31.25
2024-01-24T10:54:23.961Z,31.31
2024-01-24T10:55:23.934Z,31.20
2024-01-24T10:56:23.899Z,31.38
2024-01-24T10:57:23.913Z,31.66
2024-01-24T10:58:23.886Z,31.71
2024-01-24T10:59:23.863Z,31.82
2024-01-24T11:00:24.028Z,31.79
2024-01-24T11:01:23.990Z,31.73
2024-01-24T11:02:23.839Z,31.73
2024-01-24T11:03:23.931Z,31.90
2024-01-24T11:04:23.903Z,32.30
2024-01-24T11:05:23.896Z,32.32
2024-01-24T11:06:23.805Z,32.37
2024-01-24T11:07:23.772Z,32.79
2024-01-24T11:08:35.908Z,33.15
2024-01-24T11:09:24.892Z,33.48
2024-01-24T11:10:23.876Z,32.65
2024-01-24T11:11:24.004Z,31.69
2024-01-24T11:12:24.101Z,32.41
2024-01-24T11:13:24.053Z,32.40
2024-01-24T11:14:24.048Z,32.65
2024-01-24T11:15:24.168Z,32.89
2024-01-24T11:16:24.077Z,32.94
2024-01-24T11:17:24.106Z,32.46
2024-01-24T11:18:24.352Z,32.76
2024-01-24T11:19:24.540Z,32.54
2024-01-24T11:20:24.217Z,33.14
2024-01-24T11:21:24.302Z,33.39
2024-01-24T11:22:29.665Z,33.27
2024-01-24T11:23:25.793Z,32.98
2024-01-24T11:24:24.325Z,32.54
2024-01-24T11:25:24.324Z,32.82
2024-01-24T11:26:24.328Z,31.62
2024-01-24T11:27:24.353Z,31.63
2024-01-24T11:28:24.787Z,31.32
2024-01-24T11:29:24.323Z,31.16
2024-01-24T11:30:24.393Z,30.70
2024-01-24T11:31:24.365Z,31.83
2024-01-24T11:32:24.354Z,31.46
2024-01-24T11:33:24.456Z,31.75
2024-01-24T11:34:24.422Z,31.22
2024-01-24T11:35:24.339Z,31.15
2024-01-24T11:36:24.417Z,30.81
2024-01-24T11:37:24.337Z,30.95
2024-01-24T11:38:26.798Z,31.29
2024-01-24T11:39:24.426Z,31.40
2024-01-24T11:40:24.342Z,31.41
2024-01-24T11:41:24.345Z,31.20
2024-01-24T11:42:24.370Z,31.43
2024-01-24T11:43:24.327Z,31.50
2024-01-24T11:44:24.309Z,31.25
2024-01-24T11:45:24.337Z,31.38
2024-01-24T11:46:24.375Z,31.47
2024-01-24T11:47:24.395Z,31.57
2024-01-24T11:48:24.423Z,31.70
2024-01-24T11:49:24.364Z,31.42
2024-01-24T11:50:24.296Z,31.39
2024-01-24T11:51:24.297Z,31.54
2024-01-24T11:52:24.286Z,31.53
2024-01-24T11:53:24.272Z,31.42
2024-01-24T11:54:24.358Z,31.58
2024-01-24T11:55:24.280Z,31.32
2024-01-24T11:56:26.155Z,31.26
2024-01-24T11:57:24.302Z,30.58
2024-01-24T11:58:24.244Z,30.47
2024-01-24T11:59:24.224Z,29.65
2024-01-24T12:00:24.260Z,30.58
2024-01-24T12:01:24.232Z,31.09
2024-01-24T12:02:24.242Z,30.19
2024-01-24T12:03:24.224Z,30.85
2024-01-24T12:04:24.345Z,30.63
2024-01-24T12:05:24.193Z,30.36
2024-01-24T12:06:24.275Z,30.30
2024-01-24T12:07:24.237Z,28.88
2024-01-24T12:08:24.218Z,28.70
2024-01-24T12:09:24.277Z,28.58
2024-01-24T12:10:24.239Z,29.16
2024-01-24T12:11:24.248Z,30.00
2024-01-24T12:12:25.342Z,30.26
2024-01-24T12:13:24.400Z,30.05
2024-01-24T12:14:24.295Z,30.11
2024-01-24T12:15:24.366Z,29.93
2024-01-24T12:16:24.291Z,29.54
2024-01-24T12:17:24.309Z,29.20
2024-01-24T12:18:24.461Z,28.82
2024-01-24T12:19:24.487Z,28.60
2024-01-24T12:20:24.562Z,28.45
2024-01-24T12:21:25.622Z,28.45
2024-01-24T12:22:24.376Z,28.12
2024-01-24T12:23:24.340Z,27.95
2024-01-24T12:24:24.352Z,27.93
2024-01-24T12:25:24.327Z,27.75
2024-01-24T12:26:24.341Z,27.77
2024-01-24T12:27:24.351Z,27.83
2024-01-24T12:28:24.994Z,27.69
2024-01-24T12:29:24.338Z,27.72
2024-01-24T12:30:24.387Z,27.70
2024-01-24T12:31:24.355Z,27.64
2024-01-24T12:32:25.424Z,27.56
2024-01-24T12:33:24.474Z,27.47
2024-01-24T12:34:24.432Z,27.56
2024-01-24T12:35:24.513Z,27.42
2024-01-24T12:36:24.329Z,27.45
2024-01-24T12:37:24.304Z,27.40
2024-01-24T12:38:24.314Z,27.41
2024-01-24T12:39:24.496Z,27.51
2024-01-24T12:40:24.315Z,27.59
2024-01-24T12:41:24.310Z,27.87
2024-01-24T12:42:24.325Z,27.82
2024-01-24T12:43:25.679Z,27.64
2024-01-24T12:44:24.395Z,27.56
2024-01-24T12:45:24.338Z,27.74
2024-01-24T12:46:24.352Z,27.73
2024-01-24T12:47:24.305Z,27.72
2024-01-24T12:48:25.189Z,27.54
2024-01-24T12:49:24.441Z,27.43
2024-01-24T12:50:24.433Z,27.55
2024-01-24T12:51:24.360Z,27.47
2024-01-24T12:52:24.372Z,27.41